Time;durP1;ratioP1;P1;durP2;ratioP2;P2;SDS_P1;SDS_P2;PMS_P1;PMS_P2;Temp;Humidity;BMP_temperature;BMP_pressure;BME280_temperature;BME280_humidity;BME280_pressure;Samples;Min_cycle;Max_cycle;Signal;HPM_P1;HPM_P2
2023/03/13 00:01:29;;;;;;;17.35;10.60;;;;;;;;;;5095536;28;20075;-71
2023/03/13 00:04:15;;;;;;;16.73;10.88;;;;;;;;;;5097230;28;20058;-70
2023/03/13 00:07:00;;;;;;;16.30;10.63;;;;;;;;;;5082829;28;20529;-72
2023/03/13 00:09:46;;;;;;;18.27;11.40;;;;;;;;;;5096756;28;20031;-70
2023/03/13 00:12:32;;;;;;;16.83;10.30;;;;;;;;;;5096373;28;20023;-71
2023/03/13 00:15:17;;;;;;;15.75;10.10;;;;;;;;;;5097552;28;20024;-72
2023/03/13 00:18:03;;;;;;;16.88;10.60;;;;;;;;;;5097235;28;20094;-71
2023/03/13 00:20:49;;;;;;;17.38;10.02;;;;;;;;;;5095992;28;20012;-71
2023/03/13 00:23:36;;;;;;;16.73;9.85;;;;;;;;;;5081347;28;20020;-70
2023/03/13 00:26:23;;;;;;;15.93;9.88;;;;;;;;;;5080203;28;20078;-70
2023/03/13 00:29:08;;;;;;;17.85;9.02;;;;;;;;;;5097328;28;20415;-70
2023/03/13 00:31:54;;;;;;;17.08;10.65;;;;;;;;;;5096118;28;20024;-70
2023/03/13 00:34:40;;;;;;;15.88;10.68;;;;;;;;;;5082953;28;20012;-69
2023/03/13 00:37:25;;;;;;;19.10;10.00;;;;;;;;;;5081502;28;20016;-70
2023/03/13 00:40:11;;;;;;;14.80;9.85;;;;;;;;;;5096937;28;20103;-71
2023/03/13 00:42:56;;;;;;;16.58;9.95;;;;;;;;;;5082526;28;20447;-71
2023/03/13 00:45:42;;;;;;;15.18;9.43;;;;;;;;;;5095972;28;20070;-70
2023/03/13 00:48:28;;;;;;;17.08;9.85;;;;;;;;;;5095751;28;20531;-71
2023/03/13 00:51:14;;;;;;;16.52;10.43;;;;;;;;;;5096002;28;20028;-71
2023/03/13 00:54:00;;;;;;;15.18;9.95;;;;;;;;;;5096214;28;20023;-70
2023/03/13 00:56:45;;;;;;;19.33;10.55;;;;;;;;;;5095176;28;20016;-70
2023/03/13 00:59:31;;;;;;;14.30;9.48;;;;;;;;;;5094915;28;20406;-71
2023/03/13 01:02:16;;;;;;;14.00;9.48;;;;;;;;;;5081913;28;20477;-70
2023/03/13 01:05:02;;;;;;;18.85;10.73;;;;;;;;;;5095048;28;20105;-71
2023/03/13 01:07:48;;;;;;;16.52;10.52;;;;;;;;;;5094472;28;20102;-70
2023/03/13 01:10:33;;;;;;;15.40;10.00;;;;;;;;;;5094443;28;20039;-69
2023/03/13 01:13:19;;;;;;;17.35;10.95;;;;;;;;;;5095686;28;20111;-70
2023/03/13 01:16:09;;;;;;;17.55;10.52;;;;;;;;;;5079931;28;20020;-71
2023/03/13 01:18:57;;;;;;;15.70;9.98;;;;;;;;;;5094987;28;20095;-70
2023/03/13 01:21:43;;;;;;;16.02;10.32;;;;;;;;;;5095204;28;20039;-70
2023/03/13 01:24:29;;;;;;;19.52;10.93;;;;;;;;;;5095616;28;20035;-70
2023/03/13 01:27:14;;;;;;;17.58;11.13;;;;;;;;;;5095208;28;20062;-70
2023/03/13 01:30:00;;;;;;;16.45;10.35;;;;;;;;;;5081550;28;20028;-69
2023/03/13 01:32:46;;;;;;;16.77;10.77;;;;;;;;;;5094286;28;20016;-70
2023/03/13 01:35:31;;;;;;;17.15;10.43;;;;;;;;;;5094903;28;20016;-71
2023/03/13 01:38:17;;;;;;;18.30;10.77;;;;;;;;;;5095170;28;20043;-70
2023/03/13 01:41:03;;;;;;;18.33;11.00;;;;;;;;;;5080749;28;20092;-71
2023/03/13 01:43:49;;;;;;;21.00;11.57;;;;;;;;;;5094854;28;20020;-70
2023/03/13 01:46:34;;;;;;;39.15;11.77;;;;;;;;;;5095217;28;20058;-71
2023/03/13 01:49:22;;;;;;;18.67;11.32;;;;;;;;;;5095217;28;20016;-70
2023/03/13 01:52:13;;;;;;;17.80;10.55;;;;;;;;;;5079834;28;20363;-70
2023/03/13 01:55:01;;;;;;;15.00;10.05;;;;;;;;;;5094674;28;20063;-71
2023/03/13 01:57:49;;;;;;;19.75;11.32;;;;;;;;;;5080224;28;20333;-71
2023/03/13 02:00:35;;;;;;;18.60;11.25;;;;;;;;;;5080120;28;20035;-70
2023/03/13 02:03:21;;;;;;;18.67;11.38;;;;;;;;;;5079800;28;20111;-70
2023/03/13 02:06:07;;;;;;;16.13;10.15;;;;;;;;;;5093625;28;20116;-71
2023/03/13 02:08:54;;;;;;;20.00;11.90;;;;;;;;;;5079344;28;20090;-71
2023/03/13 02:11:56;;;;;;;17.33;10.73;;;;;;;;;;5079245;28;20024;-70
2023/03/13 02:14:44;;;;;;;16.65;11.45;;;;;;;;;;5094442;28;20103;-76
2023/03/13 02:17:30;;;;;;;21.20;12.00;;;;;;;;;;5079639;28;20035;-71
2023/03/13 02:20:17;;;;;;;16.75;10.75;;;;;;;;;;5093165;28;20048;-69
2023/03/13 02:23:13;;;;;;;19.10;11.60;;;;;;;;;;5093921;28;20020;-70
2023/03/13 02:25:59;;;;;;;19.73;11.88;;;;;;;;;;5094950;28;20349;-70
2023/03/13 02:28:44;;;;;;;18.20;11.45;;;;;;;;;;5093546;28;20016;-70
2023/03/13 02:31:30;;;;;;;15.98;10.90;;;;;;;;;;5080075;28;20024;-70
2023/03/13 02:34:19;;;;;;;16.85;10.75;;;;;;;;;;5093727;28;20028;-70
2023/03/13 02:37:06;;;;;;;17.00;11.57;;;;;;;;;;5078949;28;20444;-72
2023/03/13 02:39:52;;;;;;;19.25;11.98;;;;;;;;;;5094921;28;20388;-70
2023/03/13 02:42:39;;;;;;;19.27;11.73;;;;;;;;;;5094133;28;20013;-71
2023/03/13 02:45:25;;;;;;;19.58;12.10;;;;;;;;;;5093549;28;20027;-69
2023/03/13 02:48:11;;;;;;;19.00;11.38;;;;;;;;;;5093902;28;20020;-71
2023/03/13 02:50:57;;;;;;;19.45;11.75;;;;;;;;;;5094349;28;20046;-70
2023/03/13 02:53:43;;;;;;;17.45;10.93;;;;;;;;;;5093394;28;20028;-70
2023/03/13 02:56:30;;;;;;;17.70;11.02;;;;;;;;;;5094306;28;20013;-71
2023/03/13 02:59:16;;;;;;;20.30;11.40;;;;;;;;;;5093758;28;20024;-70
2023/03/13 03:02:02;;;;;;;20.20;11.73;;;;;;;;;;5093688;28;20105;-70
2023/03/13 03:04:47;;;;;;;18.75;11.85;;;;;;;;;;5093435;28;20016;-70
2023/03/13 03:07:33;;;;;;;18.10;11.30;;;;;;;;;;5092814;28;20059;-70
2023/03/13 03:10:19;;;;;;;19.33;12.02;;;;;;;;;;5093865;28;20066;-71
2023/03/13 03:13:04;;;;;;;22.88;11.75;;;;;;;;;;5093822;28;20043;-70
2023/03/13 03:15:50;;;;;;;17.15;11.10;;;;;;;;;;5092984;28;20012;-70
2023/03/13 03:18:36;;;;;;;20.48;12.20;;;;;;;;;;5093912;28;20342;-70
2023/03/13 03:21:22;;;;;;;20.35;12.25;;;;;;;;;;5093653;28;20024;-70
2023/03/13 03:24:08;;;;;;;19.85;12.65;;;;;;;;;;5098169;28;20035;-69
2023/03/13 03:26:54;;;;;;;25.90;13.27;;;;;;;;;;5096479;28;20016;-69
2023/03/13 03:29:39;;;;;;;30.42;13.27;;;;;;;;;;5098100;28;20012;-71
2023/03/13 03:32:25;;;;;;;22.80;14.15;;;;;;;;;;5097187;28;20117;-70
2023/03/13 03:35:10;;;;;;;21.50;13.15;;;;;;;;;;5098098;28;20028;-70
2023/03/13 03:37:56;;;;;;;22.98;13.13;;;;;;;;;;5096674;28;20432;-70
2023/03/13 03:40:42;;;;;;;20.65;12.73;;;;;;;;;;5096842;28;20112;-70
2023/03/13 03:43:27;;;;;;;23.88;13.45;;;;;;;;;;5082405;28;20504;-70
2023/03/13 03:46:13;;;;;;;23.42;13.73;;;;;;;;;;5082241;28;20024;-70
2023/03/13 03:48:59;;;;;;;22.70;13.48;;;;;;;;;;5097802;28;20020;-70
2023/03/13 03:51:44;;;;;;;21.55;13.13;;;;;;;;;;5082889;28;20024;-72
2023/03/13 03:54:30;;;;;;;20.35;12.70;;;;;;;;;;5096496;28;20030;-71
2023/03/13 03:57:15;;;;;;;21.67;13.45;;;;;;;;;;5096905;28;20425;-71
2023/03/13 04:00:01;;;;;;;23.70;13.68;;;;;;;;;;5096985;28;20380;-70
2023/03/13 04:02:46;;;;;;;22.75;12.32;;;;;;;;;;5096583;28;20356;-70
2023/03/13 04:05:32;;;;;;;21.25;12.25;;;;;;;;;;5096424;28;20050;-70
2023/03/13 04:08:18;;;;;;;19.02;12.27;;;;;;;;;;5096518;28;20044;-70
2023/03/13 04:11:03;;;;;;;24.38;12.45;;;;;;;;;;5096605;28;20031;-71
2023/03/13 04:13:49;;;;;;;19.13;11.80;;;;;;;;;;5097036;28;20121;-71
2023/03/13 04:16:34;;;;;;;18.17;11.75;;;;;;;;;;5096452;28;20020;-69
2023/03/13 04:19:20;;;;;;;21.25;12.00;;;;;;;;;;5095769;28;20047;-69
2023/03/13 04:22:06;;;;;;;19.33;11.75;;;;;;;;;;5095536;28;20023;-70
2023/03/13 04:24:51;;;;;;;18.48;11.02;;;;;;;;;;5096554;28;20016;-70
2023/03/13 04:27:37;;;;;;;19.25;11.07;;;;;;;;;;5096672;28;20016;-70
2023/03/13 04:30:22;;;;;;;18.38;11.02;;;;;;;;;;5096092;28;20030;-69
2023/03/13 04:33:08;;;;;;;17.38;11.32;;;;;;;;;;5096172;28;20356;-70
2023/03/13 04:35:53;;;;;;;18.48;11.15;;;;;;;;;;5095824;28;20048;-70
2023/03/13 04:38:39;;;;;;;18.92;10.98;;;;;;;;;;5096299;28;20070;-69
2023/03/13 04:41:25;;;;;;;18.67;11.20;;;;;;;;;;5096023;28;20111;-70
2023/03/13 04:44:10;;;;;;;19.80;10.60;;;;;;;;;;5097027;28;20016;-70
2023/03/13 04:46:56;;;;;;;21.80;10.35;;;;;;;;;;5096404;28;20024;-70
2023/03/13 04:49:42;;;;;;;21.92;10.05;;;;;;;;;;5096004;28;20016;-70
2023/03/13 04:52:27;;;;;;;22.63;11.13;;;;;;;;;;5096092;28;20501;-70
2023/03/13 04:55:13;;;;;;;44.83;12.80;;;;;;;;;;5095115;28;20035;-70
2023/03/13 04:57:58;;;;;;;22.73;11.43;;;;;;;;;;5095533;28;20097;-69
2023/03/13 05:00:44;;;;;;;25.90;11.05;;;;;;;;;;5095487;28;20016;-70
2023/03/13 05:03:29;;;;;;;21.30;11.07;;;;;;;;;;5081236;28;20024;-69
2023/03/13 05:06:15;;;;;;;23.35;11.95;;;;;;;;;;5095585;28;20177;-71
2023/03/13 05:09:01;;;;;;;27.00;13.35;;;;;;;;;;5095122;28;20020;-70
2023/03/13 05:11:47;;;;;;;23.00;11.77;;;;;;;;;;5094603;28;20448;-69
2023/03/13 05:14:32;;;;;;;26.90;12.20;;;;;;;;;;5081272;28;20028;-70
2023/03/13 05:17:18;;;;;;;33.78;12.25;;;;;;;;;;5094270;28;20448;-69
2023/03/13 05:20:06;;;;;;;20.23;12.27;;;;;;;;;;5079960;28;20055;-70
2023/03/13 05:22:52;;;;;;;27.38;12.40;;;;;;;;;;5079725;28;20016;-71
2023/03/13 05:25:37;;;;;;;24.73;12.68;;;;;;;;;;5081378;28;20121;-71
2023/03/13 05:28:23;;;;;;;37.38;12.85;;;;;;;;;;5095848;28;20443;-70
2023/03/13 05:31:08;;;;;;;29.60;12.15;;;;;;;;;;5095536;28;20028;-71
2023/03/13 05:33:54;;;;;;;28.90;12.57;;;;;;;;;;5094395;28;20016;-70
2023/03/13 05:36:40;;;;;;;27.88;13.35;;;;;;;;;;5095599;28;20055;-72
2023/03/13 05:39:25;;;;;;;48.08;13.40;;;;;;;;;;5094705;28;20047;-70
2023/03/13 05:42:11;;;;;;;23.30;14.23;;;;;;;;;;5094704;28;20016;-69
2023/03/13 05:44:56;;;;;;;27.73;13.95;;;;;;;;;;5093257;28;20093;-70
2023/03/13 05:47:42;;;;;;;30.75;13.48;;;;;;;;;;5095603;28;20028;-70
2023/03/13 05:50:27;;;;;;;22.60;12.90;;;;;;;;;;5095311;28;20052;-71
2023/03/13 05:53:13;;;;;;;47.03;13.90;;;;;;;;;;5094214;28;20024;-70
2023/03/13 05:55:59;;;;;;;30.38;12.55;;;;;;;;;;5093977;28;20016;-71
2023/03/13 05:58:44;;;;;;;37.17;14.18;;;;;;;;;;5095991;28;20027;-72
2023/03/13 06:01:30;;;;;;;20.95;12.63;;;;;;;;;;5094440;28;20012;-71
2023/03/13 06:04:15;;;;;;;28.33;13.50;;;;;;;;;;5093540;28;20020;-70
2023/03/13 06:07:01;;;;;;;25.02;13.38;;;;;;;;;;5094064;28;20040;-71
2023/03/13 06:09:46;;;;;;;21.38;12.70;;;;;;;;;;5095659;28;20030;-70
2023/03/13 06:12:32;;;;;;;26.45;14.55;;;;;;;;;;5094587;28;20260;-71
2023/03/13 06:15:18;;;;;;;29.55;15.40;;;;;;;;;;5093835;28;20013;-70
2023/03/13 06:18:03;;;;;;;43.28;14.73;;;;;;;;;;5095642;28;20017;-69
2023/03/13 06:20:49;;;;;;;49.42;14.90;;;;;;;;;;5094773;28;20020;-69
2023/03/13 06:23:35;;;;;;;41.30;13.70;;;;;;;;;;5093804;28;20113;-70
2023/03/13 06:26:23;;;;;;;31.95;13.75;;;;;;;;;;5094269;28;20038;-72
2023/03/13 06:29:11;;;;;;;37.63;14.27;;;;;;;;;;5095035;28;20066;-72
2023/03/13 06:31:57;;;;;;;36.05;14.02;;;;;;;;;;5093963;28;20024;-71
2023/03/13 06:34:42;;;;;;;25.17;14.27;;;;;;;;;;5094425;28;20028;-70
2023/03/13 06:37:28;;;;;;;31.88;14.07;;;;;;;;;;5093850;28;20498;-70
2023/03/13 06:40:14;;;;;;;23.83;13.40;;;;;;;;;;5078739;28;20024;-73
2023/03/13 06:42:59;;;;;;;23.33;13.73;;;;;;;;;;5094018;28;20113;-70
2023/03/13 06:45:45;;;;;;;40.20;13.70;;;;;;;;;;5094859;28;20024;-72
2023/03/13 06:48:31;;;;;;;25.75;12.40;;;;;;;;;;5079277;28;20013;-71
2023/03/13 06:51:18;;;;;;;29.70;12.60;;;;;;;;;;5093233;28;20368;-71
2023/03/13 06:54:03;;;;;;;20.70;11.18;;;;;;;;;;5094591;28;20028;-72
2023/03/13 06:56:49;;;;;;;17.27;10.73;;;;;;;;;;5094870;28;20070;-70
2023/03/13 06:59:35;;;;;;;17.65;10.57;;;;;;;;;;5097195;28;20132;-70
2023/03/13 07:02:20;;;;;;;22.63;13.40;;;;;;;;;;5097847;28;20020;-69
2023/03/13 07:05:06;;;;;;;17.52;12.35;;;;;;;;;;5097843;28;20027;-70
2023/03/13 07:07:52;;;;;;;19.25;10.50;;;;;;;;;;5097651;28;20349;-70
2023/03/13 07:10:37;;;;;;;18.15;10.82;;;;;;;;;;5098196;28;20085;-70
2023/03/13 07:13:23;;;;;;;14.10;9.73;;;;;;;;;;5097476;28;20024;-70
2023/03/13 07:16:10;;;;;;;16.95;10.32;;;;;;;;;;5097562;28;20448;-70
2023/03/13 07:18:55;;;;;;;15.38;10.40;;;;;;;;;;5097157;28;20060;-69
2023/03/13 07:21:41;;;;;;;20.02;10.35;;;;;;;;;;5096584;28;20020;-71
2023/03/13 07:24:27;;;;;;;16.58;10.95;;;;;;;;;;5096863;28;20039;-69
2023/03/13 07:27:12;;;;;;;39.53;12.02;;;;;;;;;;5096688;28;20032;-71
2023/03/13 07:29:58;;;;;;;18.73;10.15;;;;;;;;;;5097744;28;20089;-71
2023/03/13 07:32:44;;;;;;;16.45;9.93;;;;;;;;;;5082506;28;20150;-70
2023/03/13 07:35:29;;;;;;;14.80;10.13;;;;;;;;;;5096555;28;20109;-72
2023/03/13 07:38:15;;;;;;;17.55;11.57;;;;;;;;;;5097190;28;20020;-70
2023/03/13 07:41:01;;;;;;;16.33;10.27;;;;;;;;;;5082019;28;20348;-71
2023/03/13 07:43:46;;;;;;;18.90;11.20;;;;;;;;;;5081195;28;20024;-72
2023/03/13 07:46:32;;;;;;;17.35;11.70;;;;;;;;;;5081476;28;20052;-72
2023/03/13 07:49:17;;;;;;;16.13;10.73;;;;;;;;;;5081125;28;20024;-71
2023/03/13 07:52:03;;;;;;;18.27;11.25;;;;;;;;;;5081755;28;20111;-74
2023/03/13 07:54:49;;;;;;;17.85;11.18;;;;;;;;;;5097730;28;20129;-74
2023/03/13 07:57:34;;;;;;;14.10;10.07;;;;;;;;;;5097263;28;20030;-70
2023/03/13 08:00:20;;;;;;;15.20;10.40;;;;;;;;;;5096205;28;20012;-73
2023/03/13 08:03:05;;;;;;;19.33;11.15;;;;;;;;;;5097056;28;20031;-72
2023/03/13 08:06:01;;;;;;;16.40;10.70;;;;;;;;;;5096373;28;20028;-73
2023/03/13 08:08:47;;;;;;;19.13;11.55;;;;;;;;;;5096112;28;20031;-72
2023/03/13 08:11:32;;;;;;;25.52;12.13;;;;;;;;;;5096780;28;20325;-72
2023/03/13 08:14:18;;;;;;;16.05;11.02;;;;;;;;;;5082124;28;20020;-73
2023/03/13 08:17:04;;;;;;;26.95;11.85;;;;;;;;;;5096475;28;20322;-73
2023/03/13 08:19:49;;;;;;;17.27;11.73;;;;;;;;;;5096606;28;20030;-72
2023/03/13 08:22:36;;;;;;;16.88;11.57;;;;;;;;;;5096532;28;20030;-72
2023/03/13 08:25:22;;;;;;;16.80;11.27;;;;;;;;;;5096104;28;20067;-72
2023/03/13 08:28:09;;;;;;;18.23;11.82;;;;;;;;;;5097476;28;20439;-73
2023/03/13 08:30:55;;;;;;;15.77;11.48;;;;;;;;;;5096259;28;20024;-72
2023/03/13 08:33:41;;;;;;;19.30;11.45;;;;;;;;;;5096378;28;20478;-73
2023/03/13 08:36:28;;;;;;;16.02;11.15;;;;;;;;;;5096543;28;20034;-72
2023/03/13 08:39:15;;;;;;;19.52;11.10;;;;;;;;;;5080700;28;20031;-72
2023/03/13 08:42:01;;;;;;;26.15;11.00;;;;;;;;;;5095257;28;20027;-72
2023/03/13 08:44:46;;;;;;;23.30;11.90;;;;;;;;;;5100205;28;20024;-70
2023/03/13 08:47:32;;;;;;;18.05;11.38;;;;;;;;;;5109342;28;20285;-69
2023/03/13 08:50:17;;;;;;;16.98;10.93;;;;;;;;;;5107533;28;20035;-69
2023/03/13 08:53:03;;;;;;;21.13;10.73;;;;;;;;;;5107890;28;20020;-70
2023/03/13 08:55:52;;;;;;;13.63;10.48;;;;;;;;;;5092056;28;20081;-70
2023/03/13 08:58:38;;;;;;;14.60;9.70;;;;;;;;;;5099883;28;20016;-70
2023/03/13 09:01:25;;;;;;;15.35;9.52;;;;;;;;;;5100806;28;20061;-69
2023/03/13 09:04:10;;;;;;;12.65;9.88;;;;;;;;;;5099125;28;20051;-71
2023/03/13 09:06:56;;;;;;;30.88;15.65;;;;;;;;;;5105309;28;20109;-70
2023/03/13 09:09:42;;;;;;;11.90;8.80;;;;;;;;;;5102513;28;20020;-72
2023/03/13 09:12:29;;;;;;;16.08;10.32;;;;;;;;;;5095258;28;20395;-73
2023/03/13 09:15:15;;;;;;;11.57;8.95;;;;;;;;;;5095198;28;20016;-73
2023/03/13 09:18:01;;;;;;;15.02;9.38;;;;;;;;;;5095419;28;20060;-71
2023/03/13 09:20:47;;;;;;;13.18;9.18;;;;;;;;;;5095911;28;20047;-74
2023/03/13 09:23:32;;;;;;;13.25;9.00;;;;;;;;;;5096280;28;20042;-72
2023/03/13 09:26:19;;;;;;;34.88;9.77;;;;;;;;;;5095345;28;20027;-71
2023/03/13 09:29:05;;;;;;;13.82;8.63;;;;;;;;;;5095287;28;20020;-73
2023/03/13 09:31:50;;;;;;;15.25;9.55;;;;;;;;;;5094735;28;20028;-72
2023/03/13 09:34:36;;;;;;;14.73;8.48;;;;;;;;;;5096221;28;20055;-72
2023/03/13 09:37:21;;;;;;;11.52;8.30;;;;;;;;;;5095789;28;20035;-73
2023/03/13 09:40:09;;;;;;;12.50;8.38;;;;;;;;;;5094826;28;20076;-73
2023/03/13 09:42:57;;;;;;;9.55;7.88;;;;;;;;;;5096162;28;20026;-72
2023/03/13 09:45:43;;;;;;;11.00;7.68;;;;;;;;;;5095287;28;20094;-72
2023/03/13 09:48:33;;;;;;;9.98;7.82;;;;;;;;;;5095378;28;20024;-73
2023/03/13 09:51:41;;;;;;;10.18;7.63;;;;;;;;;;5094890;28;20030;-73
2023/03/13 09:54:38;;;;;;;12.15;7.60;;;;;;;;;;5095000;28;20035;-73
2023/03/13 09:57:42;;;;;;;11.15;8.40;;;;;;;;;;5096143;27;20019;-73
2023/03/13 10:00:38;;;;;;;20.23;7.45;;;;;;;;;;5094861;28;20451;-72
2023/03/13 10:03:29;;;;;;;13.95;7.00;;;;;;;;;;5094135;28;20023;-71
2023/03/13 10:06:17;;;;;;;11.90;7.43;;;;;;;;;;5094710;28;20059;-72
2023/03/13 10:09:14;;;;;;;9.40;7.05;;;;;;;;;;5079676;28;20107;-75
2023/03/13 10:12:05;;;;;;;11.40;7.38;;;;;;;;;;5094395;28;20093;-73
2023/03/13 10:14:55;;;;;;;10.45;6.85;;;;;;;;;;5094800;28;20389;-73
2023/03/13 10:17:41;;;;;;;9.00;6.97;;;;;;;;;;5094248;28;20120;-72
2023/03/13 10:20:27;;;;;;;9.52;7.22;;;;;;;;;;5094610;28;20095;-73
2023/03/13 10:23:13;;;;;;;9.82;6.78;;;;;;;;;;5094612;28;20024;-73
2023/03/13 10:25:59;;;;;;;9.88;6.45;;;;;;;;;;5095124;28;20085;-72
2023/03/13 10:28:44;;;;;;;10.27;6.68;;;;;;;;;;5094114;28;20117;-72
2023/03/13 10:31:31;;;;;;;22.65;7.10;;;;;;;;;;5096729;28;20351;-72
2023/03/13 10:34:16;;;;;;;11.98;6.72;;;;;;;;;;5099229;28;20031;-72
2023/03/13 10:37:02;;;;;;;15.85;6.93;;;;;;;;;;5098681;28;20030;-73
2023/03/13 10:39:48;;;;;;;8.35;6.43;;;;;;;;;;5099079;28;20406;-73
2023/03/13 10:42:34;;;;;;;9.45;6.07;;;;;;;;;;5083961;28;20397;-73
2023/03/13 10:45:21;;;;;;;7.15;5.47;;;;;;;;;;5084166;28;20396;-72
2023/03/13 10:48:13;;;;;;;7.70;5.40;;;;;;;;;;5099650;28;20028;-73
2023/03/13 10:50:59;;;;;;;7.72;6.15;;;;;;;;;;5098683;28;20028;-73
2023/03/13 10:53:44;;;;;;;11.43;6.32;;;;;;;;;;5098463;28;20496;-74
2023/03/13 10:56:30;;;;;;;9.73;6.28;;;;;;;;;;5098326;28;20123;-72
2023/03/13 10:59:25;;;;;;;12.30;6.38;;;;;;;;;;5100366;28;20089;-73
2023/03/13 11:02:20;;;;;;;10.82;6.50;;;;;;;;;;5096919;28;20063;-72
2023/03/13 11:05:24;;;;;;;7.25;4.70;;;;;;;;;;5084105;28;20019;-72
2023/03/13 11:08:30;;;;;;;17.48;6.78;;;;;;;;;;5097768;28;20109;-73
2023/03/13 11:11:18;;;;;;;7.18;5.85;;;;;;;;;;5094558;28;20085;-73
2023/03/13 11:14:08;;;;;;;7.32;5.68;;;;;;;;;;5097748;28;20106;-72
2023/03/13 11:16:56;;;;;;;8.65;4.97;;;;;;;;;;5097764;28;20020;-73
2023/03/13 11:19:49;;;;;;;7.88;4.10;;;;;;;;;;5083297;28;20115;-73
2023/03/13 11:22:38;;;;;;;6.95;4.85;;;;;;;;;;5097859;28;20024;-74
2023/03/13 11:25:26;;;;;;;8.18;5.47;;;;;;;;;;5097607;28;20085;-74
2023/03/13 11:28:16;;;;;;;9.93;5.60;;;;;;;;;;5084596;28;20028;-73
2023/03/13 11:31:02;;;;;;;7.65;5.63;;;;;;;;;;5082908;28;20333;-74
2023/03/13 11:34:06;;;;;;;10.20;6.47;;;;;;;;;;5084315;28;20124;-72
2023/03/13 11:36:52;;;;;;;6.10;4.90;;;;;;;;;;5097235;28;20108;-71
2023/03/13 11:39:54;;;;;;;12.32;5.60;;;;;;;;;;5097204;28;20056;-72
2023/03/13 11:42:45;;;;;;;8.95;5.57;;;;;;;;;;5095861;28;20020;-71
2023/03/13 11:45:50;;;;;;;11.70;5.72;;;;;;;;;;5097500;28;20035;-70
2023/03/13 11:48:41;;;;;;;8.90;5.32;;;;;;;;;;5097045;28;20051;-71
2023/03/13 11:51:48;;;;;;;6.20;5.30;;;;;;;;;;5097000;28;20016;-71
2023/03/13 11:54:36;;;;;;;8.02;5.43;;;;;;;;;;5098737;28;20020;-70
2023/03/13 11:57:29;;;;;;;6.53;5.22;;;;;;;;;;5083558;28;20024;-71
2023/03/13 12:00:28;;;;;;;13.00;5.32;;;;;;;;;;5083295;28;20099;-72
2023/03/13 12:03:26;;;;;;;7.60;4.97;;;;;;;;;;5081761;28;20024;-71
2023/03/13 12:06:32;;;;;;;12.27;5.03;;;;;;;;;;5096140;28;20066;-70
2023/03/13 12:09:26;;;;;;;5.22;4.28;;;;;;;;;;5079317;28;20032;-71
2023/03/13 12:12:43;;;;;;;7.60;4.03;;;;;;;;;;5083506;28;20024;-71
2023/03/13 12:15:31;;;;;;;7.32;4.10;;;;;;;;;;5038511;28;20069;-71
2023/03/13 12:18:20;;;;;;;9.02;4.07;;;;;;;;;;5096325;28;20012;-70
2023/03/13 12:21:11;;;;;;;103.20;8.65;;;;;;;;;;5096004;28;20108;-71
2023/03/13 12:24:03;;;;;;;5.75;4.03;;;;;;;;;;5096569;28;20126;-71
2023/03/13 12:26:57;;;;;;;7.25;3.85;;;;;;;;;;5096360;28;20027;-71
2023/03/13 12:29:55;;;;;;;6.40;3.97;;;;;;;;;;5096365;28;20111;-71
2023/03/13 12:33:04;;;;;;;5.65;4.30;;;;;;;;;;5081757;28;20103;-70
2023/03/13 12:36:00;;;;;;;10.35;4.40;;;;;;;;;;5064243;28;20020;-71
2023/03/13 12:38:52;;;;;;;7.88;4.40;;;;;;;;;;5081955;28;20024;-70
2023/03/13 12:41:42;;;;;;;9.27;4.25;;;;;;;;;;5096168;28;20012;-70
2023/03/13 12:44:27;;;;;;;13.57;4.70;;;;;;;;;;5097218;28;20081;-70
2023/03/13 12:47:33;;;;;;;22.77;5.07;;;;;;;;;;5095417;28;20024;-71
2023/03/13 12:50:28;;;;;;;19.15;5.22;;;;;;;;;;5095834;28;20412;-70
2023/03/13 12:53:15;;;;;;;7.85;4.20;;;;;;;;;;5095281;28;20012;-70
2023/03/13 12:56:06;;;;;;;17.25;4.20;;;;;;;;;;5096406;28;20081;-71
2023/03/13 12:58:54;;;;;;;6.90;4.93;;;;;;;;;;5096041;28;20089;-71
2023/03/13 13:01:41;;;;;;;6.72;4.80;;;;;;;;;;5081705;28;20095;-72
2023/03/13 13:04:29;;;;;;;8.80;4.78;;;;;;;;;;5081228;28;20020;-70
2023/03/13 13:07:47;;;;;;;6.03;4.55;;;;;;;;;;5095278;28;20044;-71
2023/03/13 13:10:33;;;;;;;7.90;4.78;;;;;;;;;;5054617;28;20028;-70
2023/03/13 13:13:32;;;;;;;6.20;4.32;;;;;;;;;;5095416;28;20028;-70
2023/03/13 13:16:19;;;;;;;9.80;4.85;;;;;;;;;;5094710;28;20108;-70
2023/03/13 13:19:23;;;;;;;18.45;4.72;;;;;;;;;;5100095;28;20356;-69
2023/03/13 13:22:27;;;;;;;8.15;4.10;;;;;;;;;;5094639;28;20452;-69
2023/03/13 13:25:13;;;;;;;5.38;4.35;;;;;;;;;;5093445;28;20102;-68
2023/03/13 13:28:31;;;;;;;10.27;4.10;;;;;;;;;;5094754;28;20034;-68
2023/03/13 13:31:35;;;;;;;5.40;3.83;;;;;;;;;;5053295;28;20032;-70
2023/03/13 13:34:26;;;;;;;6.43;4.05;;;;;;;;;;5080207;28;20073;-71
2023/03/13 13:37:15;;;;;;;5.32;3.80;;;;;;;;;;5080014;28;20034;-71
2023/03/13 13:40:19;;;;;;;4.60;3.63;;;;;;;;;;5094226;28;20348;-70
2023/03/13 13:43:05;;;;;;;6.18;3.70;;;;;;;;;;5093137;28;20061;-70
2023/03/13 13:45:59;;;;;;;11.98;3.80;;;;;;;;;;5094309;28;20126;-70
2023/03/13 13:48:45;;;;;;;13.27;3.80;;;;;;;;;;5080151;28;20407;-70
2023/03/13 13:51:31;;;;;;;4.78;3.70;;;;;;;;;;5080067;28;20427;-70
2023/03/13 13:54:16;;;;;;;5.25;3.78;;;;;;;;;;5094212;28;20460;-71
2023/03/13 13:57:08;;;;;;;9.27;3.80;;;;;;;;;;5094743;28;20024;-73
2023/03/13 13:59:58;;;;;;;6.80;3.65;;;;;;;;;;5094514;28;20353;-70
2023/03/13 14:02:51;;;;;;;13.07;4.00;;;;;;;;;;5093157;28;20070;-70
2023/03/13 14:05:39;;;;;;;4.88;3.65;;;;;;;;;;5080380;28;20048;-71
2023/03/13 14:08:38;;;;;;;6.82;3.72;;;;;;;;;;5079198;28;20466;-70
2023/03/13 14:11:26;;;;;;;6.13;3.70;;;;;;;;;;5093698;28;20082;-71
2023/03/13 14:14:19;;;;;;;4.53;3.88;;;;;;;;;;5094890;28;20059;-71
2023/03/13 14:17:08;;;;;;;14.27;5.07;;;;;;;;;;5094929;28;20024;-71
2023/03/13 14:19:53;;;;;;;8.23;4.25;;;;;;;;;;5080620;28;20020;-70
2023/03/13 14:22:45;;;;;;;11.40;4.15;;;;;;;;;;5094669;28;20031;-70
2023/03/13 14:25:41;;;;;;;5.38;4.07;;;;;;;;;;5094814;28;20436;-71
2023/03/13 14:28:28;;;;;;;3.85;3.45;;;;;;;;;;5093656;28;20016;-70
2023/03/13 14:31:33;;;;;;;6.43;3.90;;;;;;;;;;5094028;28;20020;-71
2023/03/13 14:34:19;;;;;;;4.63;3.60;;;;;;;;;;5093875;28;20051;-74
2023/03/13 14:37:25;;;;;;;4.63;3.50;;;;;;;;;;5094100;28;20368;-73
2023/03/13 14:40:19;;;;;;;7.45;3.95;;;;;;;;;;5092277;28;20048;-70
2023/03/13 14:43:15;;;;;;;5.45;3.95;;;;;;;;;;5078746;28;20456;-72
2023/03/13 14:46:21;;;;;;;5.22;3.83;;;;;;;;;;5093780;28;20038;-71
2023/03/13 14:49:14;;;;;;;5.75;4.40;;;;;;;;;;5093858;28;20426;-71
2023/03/13 14:52:18;;;;;;;39.67;5.78;;;;;;;;;;5092280;28;20021;-70
2023/03/13 14:55:05;;;;;;;10.02;4.22;;;;;;;;;;5093665;28;20414;-69
2023/03/13 14:57:58;;;;;;;7.05;3.65;;;;;;;;;;5093163;28;20103;-70
2023/03/13 15:00:45;;;;;;;13.77;4.05;;;;;;;;;;5079011;28;20020;-69
2023/03/13 15:03:31;;;;;;;12.73;4.22;;;;;;;;;;5093026;28;20028;-70
2023/03/13 15:06:18;;;;;;;4.85;3.50;;;;;;;;;;5093306;28;20052;-69
2023/03/13 15:09:15;;;;;;;7.10;3.72;;;;;;;;;;5093413;28;20471;-70
2023/03/13 15:12:01;;;;;;;5.47;3.60;;;;;;;;;;5078616;28;20058;-70
2023/03/13 15:14:48;;;;;;;12.88;4.80;;;;;;;;;;5078399;28;20115;-71
2023/03/13 15:17:33;;;;;;;5.47;3.90;;;;;;;;;;5094138;28;20444;-71
2023/03/13 15:20:21;;;;;;;8.85;4.40;;;;;;;;;;5097572;28;20413;-70
2023/03/13 15:23:09;;;;;;;11.70;4.32;;;;;;;;;;5096803;28;20019;-69
2023/03/13 15:25:55;;;;;;;4.35;3.65;;;;;;;;;;5095687;28;20506;-69
2023/03/13 15:28:41;;;;;;;8.55;5.20;;;;;;;;;;5081817;28;20060;-71
2023/03/13 15:31:27;;;;;;;6.85;3.80;;;;;;;;;;5097263;28;20030;-70
2023/03/13 15:34:13;;;;;;;5.53;3.88;;;;;;;;;;5096278;28;20082;-70
2023/03/13 15:36:58;;;;;;;4.93;3.85;;;;;;;;;;5068128;28;20024;-69
2023/03/13 15:39:44;;;;;;;7.18;4.45;;;;;;;;;;5096524;28;20463;-71
2023/03/13 15:42:30;;;;;;;7.30;4.43;;;;;;;;;;5081726;28;20051;-70
2023/03/13 15:45:15;;;;;;;13.55;5.88;;;;;;;;;;5096571;28;20024;-71
2023/03/13 15:48:01;;;;;;;12.38;5.78;;;;;;;;;;5097398;28;20054;-69
2023/03/13 15:50:50;;;;;;;10.63;5.72;;;;;;;;;;5097329;28;20494;-70
2023/03/13 15:53:36;;;;;;;19.45;5.32;;;;;;;;;;5082818;28;20035;-71
2023/03/13 15:56:22;;;;;;;6.95;4.85;;;;;;;;;;5096385;28;20422;-69
2023/03/13 15:59:11;;;;;;;8.48;4.75;;;;;;;;;;5096600;28;20112;-69
2023/03/13 16:01:57;;;;;;;5.68;4.38;;;;;;;;;;5096752;28;20072;-72
2023/03/13 16:04:43;;;;;;;7.60;4.07;;;;;;;;;;5095130;28;20090;-69
2023/03/13 16:07:28;;;;;;;5.78;4.20;;;;;;;;;;5095198;28;20120;-69
2023/03/13 16:10:16;;;;;;;11.00;4.70;;;;;;;;;;5097104;28;20024;-68
2023/03/13 16:13:02;;;;;;;72.45;8.13;;;;;;;;;;5082654;28;20016;-69
2023/03/13 16:15:48;;;;;;;47.70;5.40;;;;;;;;;;5095964;28;20024;-71
2023/03/13 16:18:33;;;;;;;10.55;5.10;;;;;;;;;;5096603;28;20298;-70
2023/03/13 16:21:20;;;;;;;8.35;4.75;;;;;;;;;;5097089;28;20027;-71
2023/03/13 16:24:06;;;;;;;10.98;5.50;;;;;;;;;;5095753;28;20062;-70
2023/03/13 16:26:52;;;;;;;8.60;5.50;;;;;;;;;;5096267;28;20024;-69
2023/03/13 16:29:37;;;;;;;11.98;5.20;;;;;;;;;;5095129;28;20039;-70